Pagrindinis puslapis
METAR-TAF:

METAR-TAF

Oro uostai :

Paderborn Lippstadt, Vokietija

platuma: 51-37N, ilguma: 008-37E, Aukštis: 213 m

Dabartinis oras

Ataskaita buvo paskelbta 40 minutes, ne 08:50 UTC
Vėjas 2 kt nuo kintamojo kryptimis
Temperatūra 13°C
Drėgmė 54%
Slėgis 1030 hPa
Matomumas 10 km arba daugiau
nėra debesų žemiau 1500 m ir nėra kamuolinių lietaus debesų

METAR: EDLP 200850Z VRB02KT CAVOK 13/04 Q1030

Laikas: 11:30 (09:30 UTC)

Prognozė

Ataskaita buvo paskelbta 4 valandos ir 30 minutes, ne 05:00 UTC
Prognozė galioja nuo 20 metu 06 UTC su 21 metu 06 UTC
Vėjas 3 kt nuo kintamojo kryptimis
Matomumas 10 km arba daugiau
nėra debesų žemiau 1500 m ir nėra kamuolinių lietaus debesų
Tapsmas
nuo 20 metu 20 UTC su 20 metu 22 UTC
Vėjas 5 kt iš Pietryčių

TAF: EDLP 200500Z 2006/2106 VRB03KT CAVOK BECMG 2020/2022 14005KT

Orai ataskaitas ir orų prognozės (METAR, TAF).

turimą stotys yra geltonos ir raudonos taškus žemėlapyje.

Perkelti pele per norėdami pamatyti stoties vardą.

Tada spustelėkite, norėdami matyti oro stebėjimo ir prognozės.

Norėdami pakeisti žemėlapį: spustelėkite ant žalios mygtukų su juodo kryžiaus žemyn,; žalią mygtuką su brūkšneliu, jei norite nutolinti; arba žalių rodyklių gretimoms žemėlapius.


METAR-TAF: